Terminal Aerodrome Forecast
Issued by NWS

Home | Current Version | Previous Version | Text Only | Print | Product List | Glossary On
Versions: 1 2 3 4 5 6 7 8 9 10 11 12 13
000
FTUS42 KFFC 270500
TAFRYY
TAF
KRYY 270531Z 2706/2806 00000KT P6SM FEW060
     FM271500 07004KT P6SM FEW030
     FM271800 35004KT P6SM SCT050
     FM280000 00000KT P6SM SKC
      AMD NOT SKED TIL 271200=

USA.gov is the U.S. government's official web portal to all federal, state and local government web resources and services.